sensor_id;sensor_type;location;lat;lon;timestamp;pressure;altitude;pressure_sealevel;temperature;humidity
73063;BME280;61230;46.328;19.972;2022-11-20T00:01:22;100289.31;;;2.53;100.00
73063;BME280;61230;46.328;19.972;2022-11-20T00:03:52;100292.84;;;2.52;100.00
73063;BME280;61230;46.328;19.972;2022-11-20T00:06:21;100274.31;;;2.58;100.00
73063;BME280;61230;46.328;19.972;2022-11-20T00:08:49;100265.31;;;2.50;100.00
73063;BME280;61230;46.328;19.972;2022-11-20T00:11:19;100261.78;;;2.51;100.00
73063;BME280;61230;46.328;19.972;2022-11-20T00:13:49;100258.91;;;2.55;100.00
73063;BME280;61230;46.328;19.972;2022-11-20T00:16:20;100278.94;;;2.53;100.00
73063;BME280;61230;46.328;19.972;2022-11-20T00:18:48;100270.41;;;2.51;100.00
73063;BME280;61230;46.328;19.972;2022-11-20T00:21:17;100264.00;;;2.57;100.00
73063;BME280;61230;46.328;19.972;2022-11-20T00:23:45;100246.00;;;2.54;100.00
73063;BME280;61230;46.328;19.972;2022-11-20T00:26:16;100245.16;;;2.53;100.00
73063;BME280;61230;46.328;19.972;2022-11-20T00:28:50;100238.53;;;2.49;100.00
73063;BME280;61230;46.328;19.972;2022-11-20T00:31:18;100224.31;;;2.55;100.00
73063;BME280;61230;46.328;19.972;2022-11-20T00:33:46;100220.03;;;2.54;100.00
73063;BME280;61230;46.328;19.972;2022-11-20T00:36:16;100224.78;;;2.47;100.00
73063;BME280;61230;46.328;19.972;2022-11-20T00:38:45;100228.75;;;2.53;100.00
73063;BME280;61230;46.328;19.972;2022-11-20T00:41:15;100230.91;;;2.46;100.00
73063;BME280;61230;46.328;19.972;2022-11-20T00:43:43;100230.25;;;2.43;100.00
73063;BME280;61230;46.328;19.972;2022-11-20T00:46:16;100234.16;;;2.50;100.00
73063;BME280;61230;46.328;19.972;2022-11-20T00:48:45;100244.91;;;2.44;100.00
73063;BME280;61230;46.328;19.972;2022-11-20T00:51:16;100230.91;;;2.46;100.00
73063;BME280;61230;46.328;19.972;2022-11-20T00:53:44;100220.53;;;2.46;100.00
73063;BME280;61230;46.328;19.972;2022-11-20T00:56:14;100206.59;;;2.47;100.00
73063;BME280;61230;46.328;19.972;2022-11-20T00:58:44;100194.38;;;2.49;100.00
73063;BME280;61230;46.328;19.972;2022-11-20T01:01:18;100196.97;;;2.49;100.00
73063;BME280;61230;46.328;19.972;2022-11-20T01:03:48;100201.12;;;2.52;100.00
73063;BME280;61230;46.328;19.972;2022-11-20T01:06:33;100190.81;;;2.50;100.00
73063;BME280;61230;46.328;19.972;2022-11-20T01:09:07;100201.03;;;2.53;100.00
73063;BME280;61230;46.328;19.972;2022-11-20T01:11:36;100194.00;;;2.55;100.00
73063;BME280;61230;46.328;19.972;2022-11-20T01:14:06;100189.00;;;2.52;100.00
73063;BME280;61230;46.328;19.972;2022-11-20T01:16:36;100178.41;;;2.55;100.00
73063;BME280;61230;46.328;19.972;2022-11-20T01:19:07;100183.69;;;2.54;100.00
73063;BME280;61230;46.328;19.972;2022-11-20T01:21:39;100184.72;;;2.51;100.00
73063;BME280;61230;46.328;19.972;2022-11-20T01:24:10;100194.06;;;2.54;100.00
73063;BME280;61230;46.328;19.972;2022-11-20T01:26:40;100206.78;;;2.58;100.00
73063;BME280;61230;46.328;19.972;2022-11-20T01:29:18;100205.19;;;2.56;100.00
73063;BME280;61230;46.328;19.972;2022-11-20T01:31:47;100190.75;;;2.52;100.00
73063;BME280;61230;46.328;19.972;2022-11-20T01:34:17;100199.94;;;2.43;100.00
73063;BME280;61230;46.328;19.972;2022-11-20T01:36:45;100193.81;;;2.58;100.00
73063;BME280;61230;46.328;19.972;2022-11-20T01:39:16;100174.81;;;2.44;100.00
73063;BME280;61230;46.328;19.972;2022-11-20T01:41:46;100168.59;;;2.46;100.00
73063;BME280;61230;46.328;19.972;2022-11-20T01:47:47;100177.31;;;2.45;100.00
73063;BME280;61230;46.328;19.972;2022-11-20T01:50:24;100174.25;;;2.39;100.00
73063;BME280;61230;46.328;19.972;2022-11-20T01:53:02;100172.41;;;2.41;100.00
73063;BME280;61230;46.328;19.972;2022-11-20T01:55:33;100168.31;;;2.37;100.00
73063;BME280;61230;46.328;19.972;2022-11-20T01:58:02;100165.16;;;2.46;100.00
73063;BME280;61230;46.328;19.972;2022-11-20T02:00:30;100168.63;;;2.32;100.00
73063;BME280;61230;46.328;19.972;2022-11-20T02:03:01;100146.81;;;2.35;100.00
73063;BME280;61230;46.328;19.972;2022-11-20T02:05:41;100145.16;;;2.33;100.00
73063;BME280;61230;46.328;19.972;2022-11-20T02:08:12;100140.81;;;2.34;100.00
73063;BME280;61230;46.328;19.972;2022-11-20T02:10:40;100132.56;;;2.27;100.00
73063;BME280;61230;46.328;19.972;2022-11-20T02:13:08;100138.41;;;2.17;100.00
73063;BME280;61230;46.328;19.972;2022-11-20T02:16:09;100140.72;;;2.21;100.00
73063;BME280;61230;46.328;19.972;2022-11-20T02:18:38;100129.13;;;2.13;100.00
73063;BME280;61230;46.328;19.972;2022-11-20T02:21:12;100122.84;;;2.17;100.00
73063;BME280;61230;46.328;19.972;2022-11-20T02:24:37;100123.94;;;2.13;100.00
73063;BME280;61230;46.328;19.972;2022-11-20T02:27:07;100113.50;;;2.00;100.00
73063;BME280;61230;46.328;19.972;2022-11-20T02:29:47;100110.38;;;1.95;100.00
73063;BME280;61230;46.328;19.972;2022-11-20T02:32:31;100108.88;;;1.91;100.00
73063;BME280;61230;46.328;19.972;2022-11-20T02:35:36;100110.81;;;1.88;100.00
73063;BME280;61230;46.328;19.972;2022-11-20T02:37:57;100111.94;;;1.98;100.00
73063;BME280;61230;46.328;19.972;2022-11-20T02:40:26;100093.06;;;1.82;100.00
73063;BME280;61230;46.328;19.972;2022-11-20T02:42:54;100114.16;;;1.90;100.00
73063;BME280;61230;46.328;19.972;2022-11-20T02:45:23;100110.38;;;1.81;100.00
73063;BME280;61230;46.328;19.972;2022-11-20T02:47:52;100129.09;;;1.86;100.00
73063;BME280;61230;46.328;19.972;2022-11-20T02:50:19;100127.59;;;1.82;100.00
73063;BME280;61230;46.328;19.972;2022-11-20T02:52:47;100131.31;;;1.92;100.00
73063;BME280;61230;46.328;19.972;2022-11-20T02:55:15;100131.13;;;1.95;100.00
73063;BME280;61230;46.328;19.972;2022-11-20T02:57:42;100135.66;;;1.92;100.00
73063;BME280;61230;46.328;19.972;2022-11-20T03:00:11;100125.47;;;1.89;100.00
73063;BME280;61230;46.328;19.972;2022-11-20T03:02:38;100120.16;;;1.90;100.00
73063;BME280;61230;46.328;19.972;2022-11-20T03:05:06;100112.00;;;1.96;100.00
73063;BME280;61230;46.328;19.972;2022-11-20T03:07:34;100116.41;;;1.82;100.00
73063;BME280;61230;46.328;19.972;2022-11-20T03:10:03;100123.25;;;1.83;100.00
73063;BME280;61230;46.328;19.972;2022-11-20T03:12:31;100136.22;;;1.83;100.00
73063;BME280;61230;46.328;19.972;2022-11-20T03:14:59;100131.56;;;1.88;100.00
73063;BME280;61230;46.328;19.972;2022-11-20T03:17:27;100137.03;;;1.83;100.00
73063;BME280;61230;46.328;19.972;2022-11-20T03:19:54;100134.16;;;1.88;100.00
73063;BME280;61230;46.328;19.972;2022-11-20T03:22:22;100139.75;;;1.82;100.00
73063;BME280;61230;46.328;19.972;2022-11-20T03:24:49;100152.91;;;1.79;100.00
73063;BME280;61230;46.328;19.972;2022-11-20T03:27:17;100169.19;;;1.81;100.00
73063;BME280;61230;46.328;19.972;2022-11-20T03:29:45;100174.19;;;1.84;100.00
73063;BME280;61230;46.328;19.972;2022-11-20T03:32:12;100176.13;;;1.94;100.00
73063;BME280;61230;46.328;19.972;2022-11-20T03:34:39;100176.13;;;1.80;100.00
73063;BME280;61230;46.328;19.972;2022-11-20T03:37:07;100177.06;;;1.93;100.00
73063;BME280;61230;46.328;19.972;2022-11-20T03:39:35;100185.31;;;1.86;100.00
73063;BME280;61230;46.328;19.972;2022-11-20T03:42:02;100180.97;;;1.86;100.00
73063;BME280;61230;46.328;19.972;2022-11-20T03:44:50;100173.19;;;1.86;100.00
73063;BME280;61230;46.328;19.972;2022-11-20T03:47:17;100172.25;;;1.87;100.00
73063;BME280;61230;46.328;19.972;2022-11-20T03:49:45;100170.66;;;1.85;100.00
73063;BME280;61230;46.328;19.972;2022-11-20T03:52:13;100158.53;;;1.85;100.00
73063;BME280;61230;46.328;19.972;2022-11-20T03:54:40;100154.53;;;1.80;100.00
73063;BME280;61230;46.328;19.972;2022-11-20T03:57:08;100160.69;;;1.79;100.00
73063;BME280;61230;46.328;19.972;2022-11-20T03:59:36;100157.12;;;1.80;100.00
73063;BME280;61230;46.328;19.972;2022-11-20T04:02:03;100154.72;;;1.77;100.00
73063;BME280;61230;46.328;19.972;2022-11-20T04:04:31;100151.22;;;1.78;100.00
73063;BME280;61230;46.328;19.972;2022-11-20T04:06:58;100156.97;;;1.83;100.00
73063;BME280;61230;46.328;19.972;2022-11-20T04:09:26;100156.97;;;1.83;100.00
73063;BME280;61230;46.328;19.972;2022-11-20T04:11:54;100144.16;;;1.80;100.00
73063;BME280;61230;46.328;19.972;2022-11-20T04:14:22;100143.44;;;1.78;100.00
73063;BME280;61230;46.328;19.972;2022-11-20T04:16:50;100140.84;;;1.78;100.00
73063;BME280;61230;46.328;19.972;2022-11-20T04:19:17;100136.50;;;1.78;100.00
73063;BME280;61230;46.328;19.972;2022-11-20T04:21:46;100128.34;;;1.84;100.00
73063;BME280;61230;46.328;19.972;2022-11-20T04:24:13;100135.66;;;1.78;100.00
73063;BME280;61230;46.328;19.972;2022-11-20T04:26:41;100140.84;;;1.78;100.00
73063;BME280;61230;46.328;19.972;2022-11-20T04:29:11;100123.41;;;1.80;100.00
73063;BME280;61230;46.328;19.972;2022-11-20T04:31:39;100107.84;;;1.80;100.00
73063;BME280;61230;46.328;19.972;2022-11-20T04:34:07;100103.44;;;1.82;100.00
73063;BME280;61230;46.328;19.972;2022-11-20T04:36:34;100101.03;;;1.79;100.00
73063;BME280;61230;46.328;19.972;2022-11-20T04:39:04;100107.03;;;1.79;100.00
73063;BME280;61230;46.328;19.972;2022-11-20T04:41:35;100106.28;;;1.77;100.00
73063;BME280;61230;46.328;19.972;2022-11-20T04:44:05;100113.03;;;1.80;100.00
73063;BME280;61230;46.328;19.972;2022-11-20T04:46:35;100120.66;;;1.83;100.00
73063;BME280;61230;46.328;19.972;2022-11-20T04:49:03;100123.91;;;1.72;100.00
73063;BME280;61230;46.328;19.972;2022-11-20T04:51:32;100133.25;;;1.74;100.00
73063;BME280;61230;46.328;19.972;2022-11-20T04:54:00;100136.69;;;1.75;100.00
73063;BME280;61230;46.328;19.972;2022-11-20T04:56:27;100139.63;;;1.69;100.00
73063;BME280;61230;46.328;19.972;2022-11-20T04:58:55;100141.56;;;1.80;100.00
73063;BME280;61230;46.328;19.972;2022-11-20T05:01:24;100134.09;;;1.75;100.00
73063;BME280;61230;46.328;19.972;2022-11-20T05:03:52;100127.94;;;1.76;100.00
73063;BME280;61230;46.328;19.972;2022-11-20T05:06:21;100114.91;;;1.78;100.00
73063;BME280;61230;46.328;19.972;2022-11-20T05:08:49;100125.34;;;1.76;100.00
73063;BME280;61230;46.328;19.972;2022-11-20T05:11:20;100114.38;;;1.72;100.00
73063;BME280;61230;46.328;19.972;2022-11-20T05:13:48;100104.00;;;1.72;100.00
73063;BME280;61230;46.328;19.972;2022-11-20T05:16:22;100092.97;;;1.69;100.00
73063;BME280;61230;46.328;19.972;2022-11-20T05:18:50;100080.91;;;1.68;100.00
73063;BME280;61230;46.328;19.972;2022-11-20T05:21:19;100073.97;;;1.68;100.00
73063;BME280;61230;46.328;19.972;2022-11-20T05:23:47;100081.75;;;1.68;100.00
73063;BME280;61230;46.328;19.972;2022-11-20T05:26:17;100074.06;;;1.67;100.00
73063;BME280;61230;46.328;19.972;2022-11-20T05:28:46;100060.16;;;1.68;100.00
73063;BME280;61230;46.328;19.972;2022-11-20T05:31:16;100056.66;;;1.69;100.00
73063;BME280;61230;46.328;19.972;2022-11-20T05:33:53;100083.44;;;1.69;100.00
73063;BME280;61230;46.328;19.972;2022-11-20T05:36:20;100086.03;;;1.69;100.00
73063;BME280;61230;46.328;19.972;2022-11-20T05:38:48;100080.91;;;1.68;100.00
73063;BME280;61230;46.328;19.972;2022-11-20T05:41:19;100080.91;;;1.68;100.00
73063;BME280;61230;46.328;19.972;2022-11-20T05:43:48;100066.00;;;1.57;100.00
73063;BME280;61230;46.328;19.972;2022-11-20T05:46:19;100083.44;;;1.69;100.00
73063;BME280;61230;46.328;19.972;2022-11-20T05:48:56;100086.94;;;1.68;100.00
73063;BME280;61230;46.328;19.972;2022-11-20T05:51:24;100083.06;;;1.61;100.00
73063;BME280;61230;46.328;19.972;2022-11-20T05:53:52;100071.94;;;1.59;100.00
73063;BME280;61230;46.328;19.972;2022-11-20T05:56:21;100084.81;;;1.61;100.00
73063;BME280;61230;46.328;19.972;2022-11-20T05:58:49;100076.56;;;1.68;100.00
73063;BME280;61230;46.328;19.972;2022-11-20T06:01:22;100085.19;;;1.69;100.00
73063;BME280;61230;46.328;19.972;2022-11-20T06:03:52;100093.63;;;1.72;100.00
73063;BME280;61230;46.328;19.972;2022-11-20T06:06:20;100121.00;;;1.77;100.00
73063;BME280;61230;46.328;19.972;2022-11-20T06:08:48;100121.78;;;1.79;100.00
73063;BME280;61230;46.328;19.972;2022-11-20T06:11:16;100119.81;;;1.82;100.00
73063;BME280;61230;46.328;19.972;2022-11-20T06:13:45;100112.78;;;1.84;100.00
73063;BME280;61230;46.328;19.972;2022-11-20T06:16:15;100132.03;;;1.80;100.00
73063;BME280;61230;46.328;19.972;2022-11-20T06:18:44;100147.41;;;1.83;100.00
73063;BME280;61230;46.328;19.972;2022-11-20T06:21:16;100156.97;;;1.83;100.00
73063;BME280;61230;46.328;19.972;2022-11-20T06:23:45;100151.78;;;1.83;100.00
73063;BME280;61230;46.328;19.972;2022-11-20T06:26:16;100163.16;;;1.80;100.00
73063;BME280;61230;46.328;19.972;2022-11-20T06:28:45;100171.31;;;1.88;100.00
73063;BME280;61230;46.328;19.972;2022-11-20T06:31:14;100151.88;;;1.81;100.00
73063;BME280;61230;46.328;19.972;2022-11-20T06:33:42;100147.31;;;1.85;100.00
73063;BME280;61230;46.328;19.972;2022-11-20T06:36:12;100142.97;;;1.85;100.00
73063;BME280;61230;46.328;19.972;2022-11-20T06:38:40;100144.94;;;1.82;100.00
73063;BME280;61230;46.328;19.972;2022-11-20T06:41:13;100130.84;;;1.86;100.00
73063;BME280;61230;46.328;19.972;2022-11-20T06:43:41;100117.12;;;1.84;100.00
73063;BME280;61230;46.328;19.972;2022-11-20T06:46:11;100126.50;;;1.86;100.00
73063;BME280;61230;46.328;19.972;2022-11-20T06:48:39;100129.81;;;1.88;100.00
73063;BME280;61230;46.328;19.972;2022-11-20T06:51:07;100152.59;;;1.83;100.00
73063;BME280;61230;46.328;19.972;2022-11-20T06:53:36;100130.47;;;1.92;100.00
73063;BME280;61230;46.328;19.972;2022-11-20T06:56:04;100130.47;;;1.92;100.00
73063;BME280;61230;46.328;19.972;2022-11-20T06:58:33;100131.75;;;1.99;100.00
73063;BME280;61230;46.328;19.972;2022-11-20T07:01:06;100125.81;;;1.97;100.00
73063;BME280;61230;46.328;19.972;2022-11-20T07:03:35;100137.16;;;1.96;100.00
73063;BME280;61230;46.328;19.972;2022-11-20T07:06:03;100136.84;;;2.00;100.00
73063;BME280;61230;46.328;19.972;2022-11-20T07:08:32;100142.59;;;2.05;100.00
73063;BME280;61230;46.328;19.972;2022-11-20T07:11:03;100157.12;;;2.22;100.00
73063;BME280;61230;46.328;19.972;2022-11-20T07:13:31;100162.25;;;2.23;100.00
73063;BME280;61230;46.328;19.972;2022-11-20T07:16:03;100163.44;;;2.18;100.00
73063;BME280;61230;46.328;19.972;2022-11-20T07:18:32;100164.91;;;2.22;100.00
73063;BME280;61230;46.328;19.972;2022-11-20T07:21:01;100167.22;;;2.41;100.00
73063;BME280;61230;46.328;19.972;2022-11-20T07:23:29;100173.34;;;2.40;100.00
73063;BME280;61230;46.328;19.972;2022-11-20T07:25:57;100171.59;;;2.26;100.00
73063;BME280;61230;46.328;19.972;2022-11-20T07:28:25;100183.66;;;2.27;100.00
73063;BME280;61230;46.328;19.972;2022-11-20T07:30:53;100194.59;;;2.32;100.00
73063;BME280;61230;46.328;19.972;2022-11-20T07:33:21;100202.34;;;2.60;100.00
73063;BME280;61230;46.328;19.972;2022-11-20T07:35:49;100182.50;;;2.45;100.00
73063;BME280;61230;46.328;19.972;2022-11-20T07:38:16;100204.09;;;2.60;100.00
73063;BME280;61230;46.328;19.972;2022-11-20T07:40:44;100196.41;;;2.44;100.00
73063;BME280;61230;46.328;19.972;2022-11-20T07:43:12;100187.97;;;2.55;100.00
73063;BME280;61230;46.328;19.972;2022-11-20T07:45:42;100187.81;;;2.44;100.00
73063;BME280;61230;46.328;19.972;2022-11-20T07:48:10;100199.66;;;2.48;100.00
73063;BME280;61230;46.328;19.972;2022-11-20T07:50:37;100191.97;;;2.32;100.00
73063;BME280;61230;46.328;19.972;2022-11-20T07:53:05;100193.00;;;2.44;100.00
73063;BME280;61230;46.328;19.972;2022-11-20T07:55:36;100205.66;;;2.62;100.00
73063;BME280;61230;46.328;19.972;2022-11-20T07:58:03;100202.72;;;2.54;100.00
73063;BME280;61230;46.328;19.972;2022-11-20T08:00:31;100212.91;;;2.57;100.00
73063;BME280;61230;46.328;19.972;2022-11-20T08:02:59;100210.69;;;2.51;100.00
73063;BME280;61230;46.328;19.972;2022-11-20T08:05:29;100212.56;;;2.76;100.00
73063;BME280;61230;46.328;19.972;2022-11-20T08:07:57;100216.16;;;2.87;100.00
73063;BME280;61230;46.328;19.972;2022-11-20T08:10:25;100210.13;;;2.60;100.00
73063;BME280;61230;46.328;19.972;2022-11-20T08:12:52;100206.31;;;2.92;100.00
73063;BME280;61230;46.328;19.972;2022-11-20T08:15:39;100195.06;;;2.65;100.00
73063;BME280;61230;46.328;19.972;2022-11-20T08:18:12;100208.69;;;2.83;100.00
73063;BME280;61230;46.328;19.972;2022-11-20T08:21:03;100215.00;;;2.65;100.00
73063;BME280;61230;46.328;19.972;2022-11-20T08:23:31;100209.56;;;2.96;100.00
73063;BME280;61230;46.328;19.972;2022-11-20T08:25:59;100223.97;;;3.14;100.00
73063;BME280;61230;46.328;19.972;2022-11-20T08:28:27;100228.53;;;3.11;100.00
73063;BME280;61230;46.328;19.972;2022-11-20T08:30:59;100227.34;;;3.02;100.00
73063;BME280;61230;46.328;19.972;2022-11-20T08:33:28;100225.06;;;2.98;100.00
73063;BME280;61230;46.328;19.972;2022-11-20T08:36:03;100231.75;;;2.87;100.00
73063;BME280;61230;46.328;19.972;2022-11-20T08:38:31;100229.22;;;3.00;100.00
73063;BME280;61230;46.328;19.972;2022-11-20T08:41:00;100220.78;;;2.97;100.00
73063;BME280;61230;46.328;19.972;2022-11-20T08:43:47;100222.44;;;2.71;100.00
73063;BME280;61230;46.328;19.972;2022-11-20T08:46:15;100230.31;;;2.83;100.00
73063;BME280;61230;46.328;19.972;2022-11-20T08:48:44;100223.97;;;3.14;100.00
73063;BME280;61230;46.328;19.972;2022-11-20T08:51:12;100206.69;;;3.01;100.00
73063;BME280;61230;46.328;19.972;2022-11-20T08:53:39;100214.38;;;3.02;100.00
73063;BME280;61230;46.328;19.972;2022-11-20T08:56:07;100214.22;;;2.91;100.00
73063;BME280;61230;46.328;19.972;2022-11-20T08:58:35;100218.72;;;3.02;100.00
73063;BME280;61230;46.328;19.972;2022-11-20T09:01:23;100213.13;;;3.08;100.00
73063;BME280;61230;46.328;19.972;2022-11-20T09:03:51;100224.06;;;3.13;100.00
73063;BME280;61230;46.328;19.972;2022-11-20T09:06:18;100224.25;;;3.10;100.00
73063;BME280;61230;46.328;19.972;2022-11-20T09:08:46;100211.91;;;3.13;100.00
73063;BME280;61230;46.328;19.972;2022-11-20T09:11:14;100225.62;;;3.15;100.00
73063;BME280;61230;46.328;19.972;2022-11-20T09:13:42;100246.22;;;3.45;100.00
73063;BME280;61230;46.328;19.972;2022-11-20T09:16:09;100283.56;;;3.44;100.00
73063;BME280;61230;46.328;19.972;2022-11-20T09:18:38;100293.50;;;3.64;100.00
73063;BME280;61230;46.328;19.972;2022-11-20T09:21:09;100304.75;;;3.65;100.00
73063;BME280;61230;46.328;19.972;2022-11-20T09:23:40;100299.28;;;3.82;100.00
73063;BME280;61230;46.328;19.972;2022-11-20T09:26:12;100295.91;;;3.67;100.00
73063;BME280;61230;46.328;19.972;2022-11-20T09:28:40;100297.78;;;3.65;100.00
73063;BME280;61230;46.328;19.972;2022-11-20T09:31:14;100298.25;;;3.84;100.00
73063;BME280;61230;46.328;19.972;2022-11-20T09:33:45;100296.47;;;3.85;100.00
73063;BME280;61230;46.328;19.972;2022-11-20T09:36:13;100288.06;;;3.94;100.00
73063;BME280;61230;46.328;19.972;2022-11-20T09:38:40;100288.16;;;3.92;100.00
73063;BME280;61230;46.328;19.972;2022-11-20T09:41:54;100292.03;;;4.12;99.75
73063;BME280;61230;46.328;19.972;2022-11-20T09:44:37;100295.56;;;3.98;100.00
73063;BME280;61230;46.328;19.972;2022-11-20T09:50:07;100276.25;;;3.63;100.00
73063;BME280;61230;46.328;19.972;2022-11-20T09:55:25;100282.75;;;3.95;99.77
73063;BME280;61230;46.328;19.972;2022-11-20T09:57:53;100285.16;;;4.24;99.09
73063;BME280;61230;46.328;19.972;2022-11-20T10:00:21;100283.28;;;4.26;99.44
73063;BME280;61230;46.328;19.972;2022-11-20T10:02:55;100281.91;;;3.95;97.75
73063;BME280;61230;46.328;19.972;2022-11-20T10:08:20;100280.47;;;4.03;99.62
73063;BME280;61230;46.328;19.972;2022-11-20T10:10:53;100286.62;;;4.53;98.70
73063;BME280;61230;46.328;19.972;2022-11-20T10:13:55;100288.25;;;4.67;98.52
73063;BME280;61230;46.328;19.972;2022-11-20T10:27:15;100248.62;;;4.74;98.34
73063;BME280;61230;46.328;19.972;2022-11-20T10:30:01;100244.03;;;4.78;96.11
73063;BME280;61230;46.328;19.972;2022-11-20T10:32:36;100230.41;;;5.10;96.19
73063;BME280;61230;46.328;19.972;2022-11-20T10:35:16;100229.38;;;5.00;95.81
73063;BME280;61230;46.328;19.972;2022-11-20T10:37:49;100229.03;;;5.29;95.87
73063;BME280;61230;46.328;19.972;2022-11-20T10:42:55;100247.37;;;5.51;94.10
73063;BME280;61230;46.328;19.972;2022-11-20T10:47:54;100254.91;;;5.32;93.93
73063;BME280;61230;46.328;19.972;2022-11-20T10:50:22;100251.06;;;5.83;95.48
73063;BME280;61230;46.328;19.972;2022-11-20T10:55:41;100250.56;;;5.67;93.83
73063;BME280;61230;46.328;19.972;2022-11-20T11:01:24;100254.06;;;5.55;94.12
73063;BME280;61230;46.328;19.972;2022-11-20T11:03:55;100261.22;;;5.64;92.63
73063;BME280;61230;46.328;19.972;2022-11-20T11:06:31;100266.00;;;5.70;92.96
73063;BME280;61230;46.328;19.972;2022-11-20T11:09:10;100276.44;;;5.46;92.80
73063;BME280;61230;46.328;19.972;2022-11-20T11:11:39;100272.72;;;5.61;93.85
73063;BME280;61230;46.328;19.972;2022-11-20T11:14:14;100268.72;;;5.79;93.53
73063;BME280;61230;46.328;19.972;2022-11-20T11:16:53;100271.75;;;5.28;94.52
73063;BME280;61230;46.328;19.972;2022-11-20T11:19:21;100254.78;;;5.57;95.00
73063;BME280;61230;46.328;19.972;2022-11-20T11:21:52;100272.31;;;5.78;93.40
73063;BME280;61230;46.328;19.972;2022-11-20T11:24:29;100265.38;;;5.90;92.88
73063;BME280;61230;46.328;19.972;2022-11-20T11:27:14;100258.03;;;6.06;93.37
73063;BME280;61230;46.328;19.972;2022-11-20T11:29:46;100260.97;;;6.02;92.37
73063;BME280;61230;46.328;19.972;2022-11-20T11:32:18;100251.34;;;5.91;93.25
73063;BME280;61230;46.328;19.972;2022-11-20T11:35:06;100251.84;;;5.61;93.78
73063;BME280;61230;46.328;19.972;2022-11-20T11:37:36;100246.41;;;5.64;94.55
73063;BME280;61230;46.328;19.972;2022-11-20T11:40:06;100247.53;;;5.84;93.96
73063;BME280;61230;46.328;19.972;2022-11-20T11:42:56;100253.50;;;5.97;93.19
73063;BME280;61230;46.328;19.972;2022-11-20T11:45:25;100254.81;;;5.92;92.72
73063;BME280;61230;46.328;19.972;2022-11-20T11:47:55;100244.84;;;5.97;91.44
73063;BME280;61230;46.328;19.972;2022-11-20T11:50:28;100255.62;;;5.92;92.08
73063;BME280;61230;46.328;19.972;2022-11-20T11:55:56;100270.66;;;6.12;92.08
73063;BME280;61230;46.328;19.972;2022-11-20T12:04:20;100282.91;;;5.88;92.90
73063;BME280;61230;46.328;19.972;2022-11-20T12:06:53;100272.44;;;6.34;92.74
73063;BME280;61230;46.328;19.972;2022-11-20T12:09:34;100271.56;;;6.00;92.27
73063;BME280;61230;46.328;19.972;2022-11-20T12:12:09;100277.59;;;5.90;92.91
73063;BME280;61230;46.328;19.972;2022-11-20T12:14:41;100284.81;;;6.32;91.60
73063;BME280;61230;46.328;19.972;2022-11-20T12:17:12;100270.31;;;6.39;91.46
73063;BME280;61230;46.328;19.972;2022-11-20T12:19:40;100265.44;;;6.23;91.91
73063;BME280;61230;46.328;19.972;2022-11-20T12:22:41;100250.22;;;6.28;90.93
73063;BME280;61230;46.328;19.972;2022-11-20T12:25:35;100252.16;;;6.37;91.57
73063;BME280;61230;46.328;19.972;2022-11-20T12:28:16;100254.63;;;6.28;92.65
73063;BME280;61230;46.328;19.972;2022-11-20T12:31:15;100243.84;;;6.32;91.59
73063;BME280;61230;46.328;19.972;2022-11-20T12:34:03;100257.47;;;6.25;90.18
73063;BME280;61230;46.328;19.972;2022-11-20T12:39:27;100243.22;;;6.29;92.55
73063;BME280;61230;46.328;19.972;2022-11-20T12:42:13;100252.84;;;6.40;93.39
73063;BME280;61230;46.328;19.972;2022-11-20T12:56:49;100242.84;;;6.22;91.94
73063;BME280;61230;46.328;19.972;2022-11-20T13:02:09;100254.37;;;6.20;92.26
73063;BME280;61230;46.328;19.972;2022-11-20T13:07:27;100243.22;;;6.40;90.78
73063;BME280;61230;46.328;19.972;2022-11-20T13:09:56;100240.50;;;6.53;91.79
73063;BME280;61230;46.328;19.972;2022-11-20T13:17:47;100242.16;;;6.43;91.87
73063;BME280;61230;46.328;19.972;2022-11-20T13:20:19;100237.06;;;6.41;91.89
73063;BME280;61230;46.328;19.972;2022-11-20T13:22:54;100224.56;;;6.45;91.58
73063;BME280;61230;46.328;19.972;2022-11-20T13:25:24;100232.06;;;6.27;91.72
73063;BME280;61230;46.328;19.972;2022-11-20T13:27:54;100241.31;;;6.20;92.88
73063;BME280;61230;46.328;19.972;2022-11-20T13:30:26;100252.25;;;6.47;91.95
73063;BME280;61230;46.328;19.972;2022-11-20T13:32:57;100246.78;;;6.50;90.47
73063;BME280;61230;46.328;19.972;2022-11-20T13:35:36;100242.62;;;6.48;91.80
73063;BME280;61230;46.328;19.972;2022-11-20T13:38:05;100255.22;;;6.20;92.63
73063;BME280;61230;46.328;19.972;2022-11-20T13:40:37;100260.31;;;6.33;91.66
73063;BME280;61230;46.328;19.972;2022-11-20T13:43:19;100267.00;;;6.48;91.78
73063;BME280;61230;46.328;19.972;2022-11-20T13:45:57;100274.91;;;6.24;92.27
73063;BME280;61230;46.328;19.972;2022-11-20T13:48:46;100282.78;;;6.35;91.79
73063;BME280;61230;46.328;19.972;2022-11-20T13:51:34;100288.97;;;6.46;92.33
73063;BME280;61230;46.328;19.972;2022-11-20T13:54:31;100278.97;;;6.51;90.93
73063;BME280;61230;46.328;19.972;2022-11-20T14:00:19;100280.53;;;6.53;89.83
73063;BME280;61230;46.328;19.972;2022-11-20T14:05:37;100283.63;;;6.58;90.26
73063;BME280;61230;46.328;19.972;2022-11-20T14:08:14;100276.28;;;6.52;90.60
73063;BME280;61230;46.328;19.972;2022-11-20T14:10:44;100282.81;;;6.58;90.92
73063;BME280;61230;46.328;19.972;2022-11-20T14:13:18;100290.88;;;6.55;90.16
73063;BME280;61230;46.328;19.972;2022-11-20T14:15:47;100295.41;;;6.53;90.18
73063;BME280;61230;46.328;19.972;2022-11-20T14:18:25;100306.03;;;6.27;91.55
73063;BME280;61230;46.328;19.972;2022-11-20T14:20:54;100293.97;;;6.49;90.50